St Louis Regional Airport
KALN : now visible

Airfield :











YOU CAN JOIN US ON...

 
LOGIN :

Register | Disclaimer

   EN    FR    IT 

 









Legend :    VFR   Marginal VFR   IFR   Intensive IFR   Very Intensive IFR
Visi :
Ceiling :
>= 8 km
>= 3000ft
5 to 8 km
1000 to 3000 ft
1500m to 5 km
500 to 1000 ft
800 to 1500m
200 to 500 ft
< 800m
< 200 ft
Symbols :   Thunderstorms  Fog  Heavy snow  Heavy precipitations  Wind > 20 kt






- Airport Elevation : 544 ft


KALN - St Louis Regional

CURRENT METAR :
  • 141350Z 30005KT 10SM OVC060 00/M04 A3024

EXPIRED METARs :
  • 141250Z 29005KT 10SM SCT044 OVC060 M01/M03 A3021
  • 141235Z AUTO 27003KT 10SM OVC040 M01/M04 A3021 RMK AO2 T10111036
  • 141215Z AUTO 26004KT 10SM OVC042 M01/M04 A3020 RMK AO2 T10131040
  • 141155Z AUTO 25003KT 10SM OVC044 M03/M05 A3019 RMK AO2 T10271047 11015 21046
  • 141135Z AUTO 23003KT 10SM OVC044 M03/M05 A3018 RMK AO2 T10301053
  • 141115Z AUTO 00000KT 10SM OVC048 M03/M06 A3017 RMK AO2 T10291060
  • 141055Z AUTO 00000KT 10SM BKN050 BKN085 M04/M06 A3016 RMK AO2 T10381058

TAF N/A



MET'MAP, your aeronautical weather chart ! - Copyright ORBIFLY December 2007 - Disclaimer

ORBIFLY MET'MAP TEAM :

Programming & Development : Alexandra Zaïnal
Concept & Development : Baudouin d'Aumeries
Co-Development & Prog : Marc-Olivier Méhu
Technical & hardware support : Manuel Goepfert

Contact : metmap@orbifly.com




SOURCES & CREDITS :

   NOAA       Earth
Advisory